createdAt,value
2019-03-05T00:01:04.135Z,38.70
2019-03-05T00:03:32.421Z,38.60
2019-03-05T00:06:00.680Z,38.70
2019-03-05T00:08:28.909Z,38.80
2019-03-05T00:10:57.161Z,38.70
2019-03-05T00:13:25.426Z,38.60
2019-03-05T00:15:55.525Z,38.60
2019-03-05T00:18:23.864Z,38.60
2019-03-05T00:20:52.125Z,38.60
2019-03-05T00:23:46.355Z,38.60
2019-03-05T00:26:15.122Z,38.60
2019-03-05T00:28:52.492Z,38.60
2019-03-05T00:31:32.566Z,38.60
2019-03-05T00:34:12.289Z,38.60
2019-03-05T00:36:43.828Z,38.60
2019-03-05T00:39:30.278Z,38.60
2019-03-05T00:42:01.797Z,38.60
2019-03-05T00:44:51.367Z,38.50
2019-03-05T00:47:37.736Z,38.60
2019-03-05T00:50:20.937Z,38.60
2019-03-05T00:52:55.112Z,38.60
2019-03-05T00:55:50.779Z,38.50
2019-03-05T00:58:22.594Z,38.50
2019-03-05T01:01:06.003Z,38.50
2019-03-05T01:04:00.218Z,38.50
2019-03-05T01:06:28.465Z,38.50
2019-03-05T01:08:57.284Z,38.50
2019-03-05T01:11:25.687Z,38.50
2019-03-05T01:13:53.953Z,38.50
2019-03-05T01:16:23.845Z,38.60
2019-03-05T01:18:52.082Z,38.50
2019-03-05T01:21:20.365Z,38.50
2019-03-05T01:23:48.625Z,38.50
2019-03-05T01:26:16.868Z,38.50
2019-03-05T01:28:45.113Z,38.50
2019-03-05T01:31:27.079Z,38.50
2019-03-05T01:33:56.977Z,38.40
2019-03-05T01:36:26.866Z,38.50
2019-03-05T01:38:56.760Z,38.50
2019-03-05T01:41:24.980Z,38.40
2019-03-05T01:43:53.240Z,38.40
2019-03-05T01:46:21.484Z,38.40
2019-03-05T01:48:49.833Z,38.50
2019-03-05T01:51:18.095Z,38.40
2019-03-05T01:53:46.497Z,38.40
2019-03-05T01:56:14.752Z,38.50
2019-03-05T01:58:42.976Z,38.40
2019-03-05T02:01:11.244Z,38.30
2019-03-05T02:03:39.476Z,38.30
2019-03-05T02:06:07.710Z,38.30
2019-03-05T02:08:35.996Z,38.30
2019-03-05T02:11:48.776Z,38.40
2019-03-05T02:14:16.996Z,38.30
2019-03-05T02:16:45.250Z,38.20
2019-03-05T02:19:35.921Z,38.20
2019-03-05T02:22:06.479Z,38.30
2019-03-05T02:25:00.869Z,38.20
2019-03-05T02:28:00.840Z,38.20
2019-03-05T02:30:53.628Z,38.20
2019-03-05T02:33:41.675Z,38.10
2019-03-05T02:36:33.542Z,38.10
2019-03-05T02:39:07.829Z,38.10
2019-03-05T02:42:00.319Z,38.10
2019-03-05T02:44:37.342Z,38.10
2019-03-05T02:47:42.101Z,38.10
2019-03-05T02:50:39.388Z,38.10
2019-03-05T02:53:39.675Z,38.10
2019-03-05T02:56:23.222Z,38.10
2019-03-05T02:58:50.557Z,38.10
2019-03-05T03:01:38.586Z,38.00
2019-03-05T03:04:14.734Z,38.10
2019-03-05T03:06:43.844Z,38.00
2019-03-05T03:09:27.131Z,37.90
2019-03-05T03:11:55.395Z,38.00
2019-03-05T03:14:24.688Z,37.90
2019-03-05T03:16:53.100Z,37.90
2019-03-05T03:19:21.365Z,38.00
2019-03-05T03:21:49.606Z,38.00
2019-03-05T03:24:17.877Z,38.00
2019-03-05T03:26:47.675Z,38.00
2019-03-05T03:29:16.990Z,38.00
2019-03-05T03:31:45.264Z,38.00
2019-03-05T03:34:13.503Z,37.90
2019-03-05T03:36:41.777Z,37.90
2019-03-05T03:39:10.011Z,38.00
2019-03-05T03:41:38.247Z,38.10
2019-03-05T03:44:06.604Z,37.90
2019-03-05T03:46:34.953Z,37.90
2019-03-05T03:49:03.306Z,38.00
2019-03-05T03:51:32.337Z,37.90
2019-03-05T03:54:00.560Z,37.90
2019-03-05T03:56:30.177Z,37.90
2019-03-05T03:58:58.443Z,37.90
2019-03-05T04:01:26.674Z,37.90
2019-03-05T04:03:54.938Z,37.90
2019-03-05T04:06:23.186Z,37.80
2019-03-05T04:08:51.427Z,37.80
2019-03-05T04:11:19.665Z,37.80
2019-03-05T04:13:47.918Z,37.80
2019-03-05T04:16:16.234Z,37.30
2019-03-05T04:18:46.793Z,37.80
2019-03-05T04:21:15.054Z,37.80
2019-03-05T04:23:43.316Z,37.80
2019-03-05T04:26:12.634Z,37.70
2019-03-05T04:28:40.865Z,37.90
2019-03-05T04:31:12.481Z,37.90
2019-03-05T04:33:40.681Z,37.80
2019-03-05T04:36:08.925Z,37.90
2019-03-05T04:38:37.180Z,37.90
2019-03-05T04:41:05.753Z,37.90
2019-03-05T04:43:37.997Z,37.90
2019-03-05T04:46:07.864Z,37.90
2019-03-05T04:48:36.531Z,38.00
2019-03-05T04:51:09.566Z,37.90
2019-03-05T04:56:42.380Z,37.90
2019-03-05T04:59:10.605Z,38.00
2019-03-05T05:01:38.906Z,38.00
2019-03-05T05:04:07.166Z,37.90
2019-03-05T05:06:35.393Z,38.00
2019-03-05T05:12:32.346Z,38.00
2019-03-05T05:15:00.586Z,38.10
2019-03-05T05:17:28.837Z,38.10
2019-03-05T05:19:57.104Z,38.10
2019-03-05T05:22:25.326Z,38.20
2019-03-05T05:24:53.561Z,38.30
2019-03-05T05:27:21.810Z,38.20
2019-03-05T05:29:50.079Z,38.30
2019-03-05T05:32:18.320Z,38.30
2019-03-05T05:34:46.565Z,38.30
2019-03-05T05:37:14.801Z,38.30
2019-03-05T05:40:21.659Z,38.30
2019-03-05T05:42:49.901Z,38.40
2019-03-05T05:45:21.002Z,38.30
2019-03-05T05:47:49.225Z,38.40
2019-03-05T05:50:17.492Z,38.60
2019-03-05T05:52:45.748Z,38.60
2019-03-05T05:55:14.032Z,38.70
2019-03-05T05:57:42.280Z,38.70
2019-03-05T06:00:13.309Z,38.70
2019-03-05T06:02:41.565Z,38.80
2019-03-05T06:05:09.894Z,38.80
2019-03-05T06:07:38.163Z,38.70
2019-03-05T06:10:12.517Z,38.70
2019-03-05T06:12:40.764Z,38.80
2019-03-05T06:15:13.165Z,38.70
2019-03-05T06:17:41.413Z,38.70
2019-03-05T06:20:17.317Z,38.70
2019-03-05T06:22:45.540Z,38.70
2019-03-05T06:25:14.634Z,38.70
2019-03-05T06:27:42.869Z,38.60
2019-03-05T06:30:19.560Z,38.70
2019-03-05T06:32:47.884Z,38.70
2019-03-05T06:35:16.138Z,38.60
2019-03-05T06:37:44.395Z,38.60
2019-03-05T06:40:17.558Z,38.60
2019-03-05T06:42:45.790Z,38.70
2019-03-05T06:45:18.049Z,38.70
2019-03-05T06:47:46.329Z,38.50
2019-03-05T06:50:17.925Z,38.50
2019-03-05T06:52:46.156Z,38.60
2019-03-05T06:55:15.148Z,38.60
2019-03-05T06:57:43.542Z,38.60
2019-03-05T07:00:21.127Z,38.60
2019-03-05T07:02:49.348Z,38.70
2019-03-05T07:05:54.548Z,38.70
2019-03-05T07:08:22.792Z,38.70
2019-03-05T07:11:19.913Z,38.70
2019-03-05T07:13:49.484Z,37.20
2019-03-05T07:16:29.662Z,37.70
2019-03-05T07:18:59.583Z,38.20
2019-03-05T07:21:50.483Z,38.40
2019-03-05T07:24:46.704Z,38.60
2019-03-05T07:27:21.328Z,38.50
2019-03-05T07:29:49.561Z,38.50
2019-03-05T07:32:17.819Z,38.60
2019-03-05T07:34:47.737Z,38.60
2019-03-05T07:37:16.010Z,38.70
2019-03-05T07:39:44.333Z,38.70
2019-03-05T07:42:12.566Z,38.70
2019-03-05T07:44:40.833Z,38.70
2019-03-05T07:47:09.158Z,38.70
2019-03-05T07:49:43.722Z,38.70
2019-03-05T07:52:07.518Z,38.70
2019-03-05T07:54:35.794Z,38.70
2019-03-05T07:57:04.019Z,38.70
2019-03-05T07:59:32.254Z,38.70
2019-03-05T08:02:00.521Z,39.30
2019-03-05T08:04:28.763Z,38.70
2019-03-05T08:06:56.994Z,38.70
2019-03-05T08:09:35.587Z,38.80
2019-03-05T08:12:35.625Z,38.70
2019-03-05T08:15:07.144Z,38.70
2019-03-05T08:17:35.361Z,38.70
2019-03-05T08:20:04.873Z,38.70
2019-03-05T08:22:33.125Z,38.70
2019-03-05T08:25:01.369Z,38.70
2019-03-05T08:27:29.628Z,38.70
2019-03-05T08:29:57.873Z,38.70
2019-03-05T08:32:26.116Z,38.80
2019-03-05T08:34:54.360Z,38.70
2019-03-05T08:37:22.584Z,38.70
2019-03-05T08:39:50.904Z,38.70
2019-03-05T08:42:19.143Z,38.70
2019-03-05T08:44:50.618Z,38.80
2019-03-05T08:47:17.358Z,38.70
2019-03-05T08:49:45.586Z,38.70
2019-03-05T08:52:13.841Z,38.80
2019-03-05T08:54:42.107Z,38.70
2019-03-05T08:57:10.349Z,38.70
2019-03-05T08:59:38.605Z,38.70
2019-03-05T09:02:06.842Z,37.70
2019-03-05T09:04:35.128Z,37.00
2019-03-05T09:07:03.367Z,37.30
2019-03-05T09:09:31.619Z,37.60
2019-03-05T09:11:59.852Z,38.30
2019-03-05T09:14:28.136Z,39.00
2019-03-05T09:16:56.409Z,39.30
2019-03-05T09:19:24.656Z,39.40
2019-03-05T09:21:53.117Z,39.20
2019-03-05T09:24:21.348Z,39.10
2019-03-05T09:26:51.533Z,39.10
2019-03-05T09:29:19.532Z,39.10
2019-03-05T09:31:47.774Z,39.10
2019-03-05T09:34:16.009Z,39.20
2019-03-05T09:36:50.736Z,39.20
2019-03-05T09:39:14.206Z,39.30
2019-03-05T09:41:42.433Z,39.30
2019-03-05T09:44:10.677Z,39.40
2019-03-05T09:46:38.932Z,39.30
2019-03-05T09:49:07.230Z,39.30
2019-03-05T09:51:35.483Z,39.30
2019-03-05T09:54:03.710Z,39.20
2019-03-05T09:56:32.020Z,39.30
2019-03-05T09:59:00.242Z,39.30
2019-03-05T10:01:28.524Z,39.30
2019-03-05T10:03:56.768Z,39.40
2019-03-05T10:06:24.988Z,40.60
2019-03-05T10:08:53.234Z,40.50
2019-03-05T10:11:21.496Z,41.20
2019-03-05T10:13:49.787Z,40.90
2019-03-05T10:16:18.021Z,40.90
2019-03-05T10:18:46.254Z,41.10
2019-03-05T10:21:14.516Z,41.00
2019-03-05T10:23:42.760Z,41.20
2019-03-05T10:26:11.022Z,41.20
2019-03-05T10:28:39.282Z,41.00
2019-03-05T10:31:07.542Z,40.10
2019-03-05T10:33:35.796Z,39.30
2019-03-05T10:36:04.277Z,39.50
2019-03-05T10:38:32.589Z,39.80
2019-03-05T10:41:01.727Z,40.00
2019-03-05T10:43:29.985Z,40.00
2019-03-05T10:45:58.257Z,40.00
2019-03-05T10:48:26.504Z,40.00
2019-03-05T10:50:54.764Z,40.10
2019-03-05T10:53:23.003Z,40.00
2019-03-05T10:55:51.529Z,39.80
2019-03-05T10:58:19.757Z,39.70
2019-03-05T11:00:49.256Z,39.70
2019-03-05T11:03:17.672Z,39.70
2019-03-05T11:05:46.777Z,39.50
2019-03-05T11:08:23.933Z,39.40
2019-03-05T11:10:52.404Z,39.50
2019-03-05T11:13:20.642Z,39.70
2019-03-05T11:15:52.268Z,39.70
2019-03-05T11:18:28.929Z,39.70
2019-03-05T11:20:50.468Z,39.60
2019-03-05T11:23:18.707Z,39.20
2019-03-05T11:25:46.967Z,39.60
2019-03-05T11:28:15.206Z,39.70
2019-03-05T11:30:43.464Z,39.60
2019-03-05T11:33:11.755Z,39.60
2019-03-05T11:35:40.005Z,39.70
2019-03-05T11:38:08.253Z,39.70
2019-03-05T11:40:36.592Z,39.70
2019-03-05T11:43:13.288Z,39.80
2019-03-05T11:45:42.395Z,39.70
2019-03-05T11:48:10.659Z,39.70
2019-03-05T11:50:38.953Z,39.70
2019-03-05T11:53:07.189Z,39.70
2019-03-05T11:55:35.416Z,39.70
2019-03-05T11:58:03.661Z,39.70
2019-03-05T12:00:34.765Z,39.80
2019-03-05T12:03:03.012Z,39.80
2019-03-05T12:05:31.258Z,39.80
2019-03-05T12:07:59.485Z,39.90
2019-03-05T12:10:27.748Z,40.00
2019-03-05T12:12:56.006Z,39.90
2019-03-05T12:15:26.486Z,39.80
2019-03-05T12:17:54.761Z,39.80
2019-03-05T12:20:23.004Z,39.80
2019-03-05T12:22:51.229Z,39.70
2019-03-05T12:25:23.660Z,39.70
2019-03-05T12:27:51.159Z,39.50
2019-03-05T12:30:24.226Z,39.50
2019-03-05T12:32:52.477Z,39.70
2019-03-05T12:35:20.758Z,39.60
2019-03-05T12:37:49.321Z,39.70
2019-03-05T12:40:19.873Z,39.70
2019-03-05T12:42:48.193Z,39.70
2019-03-05T12:45:17.498Z,39.70
2019-03-05T12:47:45.732Z,39.70
2019-03-05T12:50:23.100Z,39.60
2019-03-05T12:52:51.856Z,39.70
2019-03-05T12:55:21.562Z,39.90
2019-03-05T12:57:49.817Z,40.10
2019-03-05T13:00:20.084Z,40.60
2019-03-05T13:02:48.705Z,40.80
2019-03-05T13:05:17.256Z,40.90
2019-03-05T13:07:45.500Z,41.10
2019-03-05T13:10:22.801Z,41.30
2019-03-05T13:12:51.054Z,41.50
2019-03-05T13:15:25.101Z,41.60
2019-03-05T13:17:53.329Z,41.80
2019-03-05T13:20:22.584Z,41.80
2019-03-05T13:22:51.561Z,41.90
2019-03-05T13:25:24.175Z,41.80
2019-03-05T13:27:51.838Z,41.70
2019-03-05T13:30:25.823Z,41.70
2019-03-05T13:32:54.115Z,41.60
2019-03-05T13:35:25.469Z,41.50
2019-03-05T13:37:55.502Z,41.50
2019-03-05T13:40:34.145Z,41.50
2019-03-05T13:43:00.353Z,41.50
2019-03-05T13:45:28.625Z,41.40
2019-03-05T13:48:19.739Z,41.40
2019-03-05T13:50:57.232Z,41.40
2019-03-05T13:53:37.473Z,41.40
2019-03-05T13:56:14.655Z,41.40
2019-03-05T13:58:48.797Z,41.50
2019-03-05T14:01:17.073Z,41.60
2019-03-05T14:04:06.390Z,41.50
2019-03-05T14:06:49.425Z,42.10
2019-03-05T14:09:17.854Z,41.50
2019-03-05T14:11:47.334Z,41.30
2019-03-05T14:14:22.862Z,39.60
2019-03-05T14:16:55.350Z,39.10
2019-03-05T14:19:23.631Z,39.90
2019-03-05T14:21:51.862Z,40.70
2019-03-05T14:24:20.090Z,41.60
2019-03-05T14:26:48.359Z,42.40
2019-03-05T14:29:16.705Z,42.90
2019-03-05T14:31:45.363Z,43.20
2019-03-05T14:34:13.724Z,43.60
2019-03-05T14:36:42.095Z,43.80
2019-03-05T14:39:20.245Z,44.00
2019-03-05T14:41:48.607Z,48.10
2019-03-05T14:44:16.812Z,45.70
2019-03-05T14:46:46.372Z,44.20
2019-03-05T14:49:14.698Z,43.60
2019-03-05T14:51:42.971Z,43.50
2019-03-05T14:54:11.232Z,43.60
2019-03-05T14:56:39.659Z,43.80
2019-03-05T14:59:07.896Z,43.80
2019-03-05T15:01:36.118Z,44.00
2019-03-05T15:04:04.456Z,44.10
2019-03-05T15:06:32.710Z,43.90
2019-03-05T15:09:01.009Z,44.00
2019-03-05T15:11:29.240Z,44.00
2019-03-05T15:13:57.535Z,44.00
2019-03-05T15:16:25.850Z,43.80
2019-03-05T15:18:54.200Z,43.80
2019-03-05T15:21:22.552Z,44.00
2019-03-05T15:23:50.927Z,43.90
2019-03-05T15:26:19.238Z,43.90
2019-03-05T15:28:56.176Z,44.00
2019-03-05T15:31:17.557Z,43.80
2019-03-05T15:33:46.030Z,43.60
2019-03-05T15:36:23.833Z,43.30
2019-03-05T15:38:44.286Z,43.30
2019-03-05T15:41:12.600Z,43.40
2019-03-05T15:43:40.905Z,43.40
2019-03-05T15:46:09.278Z,43.30
2019-03-05T15:48:37.678Z,43.10
2019-03-05T15:51:05.955Z,43.20
2019-03-05T15:53:34.311Z,43.20
2019-03-05T15:56:02.609Z,43.20
2019-03-05T15:58:30.865Z,43.00
2019-03-05T16:00:59.151Z,42.60
2019-03-05T16:03:27.412Z,42.10
2019-03-05T16:05:57.796Z,42.50
2019-03-05T16:08:26.247Z,42.50
2019-03-05T16:10:58.465Z,42.70
2019-03-05T16:13:24.584Z,42.60
2019-03-05T16:15:52.818Z,42.70
2019-03-05T16:18:21.093Z,42.70
2019-03-05T16:20:49.357Z,42.80
2019-03-05T16:23:17.589Z,42.80
2019-03-05T16:25:50.253Z,42.80
2019-03-05T16:28:16.474Z,42.90
2019-03-05T16:30:46.332Z,42.80
2019-03-05T16:33:18.944Z,42.80
2019-03-05T16:36:04.371Z,42.80
2019-03-05T16:38:51.218Z,42.90
2019-03-05T16:41:38.664Z,42.90
2019-03-05T16:44:08.579Z,43.50
2019-03-05T16:46:41.393Z,43.00
2019-03-05T16:49:13.991Z,43.00
2019-03-05T16:52:00.825Z,43.00
2019-03-05T16:54:39.955Z,43.00
2019-03-05T16:57:12.648Z,43.00
2019-03-05T16:59:53.223Z,43.10
2019-03-05T17:02:23.055Z,43.10
2019-03-05T17:05:09.380Z,43.10
2019-03-05T17:07:41.691Z,43.10
2019-03-05T17:10:30.179Z,43.10
2019-03-05T17:12:58.575Z,43.20
2019-03-05T17:15:26.828Z,43.20
2019-03-05T17:17:55.088Z,43.10
2019-03-05T17:20:23.313Z,43.10
2019-03-05T17:22:51.548Z,43.10
2019-03-05T17:25:23.028Z,43.10
2019-03-05T17:27:51.276Z,43.10
2019-03-05T17:30:19.507Z,43.20
2019-03-05T17:32:47.831Z,43.10
2019-03-05T17:35:16.072Z,43.20
2019-03-05T17:37:44.764Z,43.10
2019-03-05T17:40:13.922Z,43.20
2019-03-05T17:42:42.220Z,43.20
2019-03-05T17:45:19.002Z,43.20
2019-03-05T17:47:47.230Z,43.10
2019-03-05T17:50:15.453Z,43.20
2019-03-05T17:52:43.688Z,43.10
2019-03-05T17:55:27.266Z,43.10
2019-03-05T17:57:55.702Z,43.20
2019-03-05T18:00:35.335Z,43.20
2019-03-05T18:03:03.585Z,43.20
2019-03-05T18:05:31.834Z,43.20
2019-03-05T18:08:00.138Z,43.20
2019-03-05T18:10:28.360Z,43.30
2019-03-05T18:12:56.629Z,43.30
2019-03-05T18:15:24.844Z,43.30
2019-03-05T18:17:53.139Z,43.30
2019-03-05T18:20:22.136Z,43.30
2019-03-05T18:22:50.452Z,43.40
2019-03-05T18:25:18.749Z,43.40
2019-03-05T18:27:47.353Z,43.40
2019-03-05T18:30:29.362Z,43.40
2019-03-05T18:32:57.889Z,43.40
2019-03-05T18:35:26.203Z,43.40
2019-03-05T18:37:54.814Z,43.50
2019-03-05T18:40:23.994Z,43.50
2019-03-05T18:42:52.428Z,43.50
2019-03-05T18:45:32.112Z,43.50
2019-03-05T18:48:00.344Z,43.50
2019-03-05T18:50:28.606Z,43.50
2019-03-05T18:53:01.393Z,43.40
2019-03-05T18:55:29.797Z,43.10
2019-03-05T18:57:58.068Z,43.10
2019-03-05T19:00:27.741Z,43.00
2019-03-05T19:03:15.877Z,43.00
2019-03-05T19:05:44.273Z,43.10
2019-03-05T19:08:12.501Z,43.10
2019-03-05T19:10:40.770Z,43.20
2019-03-05T19:13:09.009Z,43.30
2019-03-05T19:15:37.313Z,43.30
2019-03-05T19:18:06.306Z,43.30
2019-03-05T19:20:34.545Z,43.30
2019-03-05T19:23:02.821Z,43.20
2019-03-05T19:25:33.239Z,43.30
2019-03-05T19:28:01.585Z,43.20
2019-03-05T19:30:34.819Z,43.40
2019-03-05T19:33:03.088Z,43.90
2019-03-05T19:35:31.430Z,43.90
2019-03-05T19:37:59.818Z,43.90
2019-03-05T19:40:31.563Z,43.70
2019-03-05T19:42:59.815Z,43.00
2019-03-05T19:45:28.088Z,43.40
2019-03-05T19:48:15.769Z,43.20
2019-03-05T19:50:44.310Z,43.30
2019-03-05T19:53:12.551Z,43.20
2019-03-05T19:55:42.116Z,43.20
2019-03-05T19:58:12.025Z,43.20
2019-03-05T20:01:01.058Z,43.20
2019-03-05T20:03:29.415Z,43.20
2019-03-05T20:05:58.920Z,42.60
2019-03-05T20:08:28.835Z,43.10
2019-03-05T20:10:57.464Z,43.00
2019-03-05T20:13:25.820Z,42.80
2019-03-05T20:15:54.403Z,42.80
2019-03-05T20:18:23.255Z,42.90
2019-03-05T20:20:51.519Z,42.70
2019-03-05T20:23:19.775Z,42.60
2019-03-05T20:25:48.041Z,42.60
2019-03-05T20:28:16.271Z,42.60
2019-03-05T20:30:44.548Z,42.70
2019-03-05T20:33:12.985Z,43.20
2019-03-05T20:35:43.356Z,42.70
2019-03-05T20:38:11.660Z,42.70
2019-03-05T20:40:39.906Z,42.70
2019-03-05T20:43:08.197Z,42.50
2019-03-05T20:45:45.111Z,42.60
2019-03-05T20:48:13.760Z,42.70
2019-03-05T20:50:42.329Z,42.80
2019-03-05T20:53:10.626Z,42.80
2019-03-05T20:55:39.999Z,43.00
2019-03-05T20:58:08.310Z,43.10
2019-03-05T21:00:37.889Z,43.20
2019-03-05T21:03:07.711Z,42.90
2019-03-05T21:05:41.888Z,43.00
2019-03-05T21:08:10.210Z,43.00
2019-03-05T21:10:38.451Z,42.90
2019-03-05T21:13:07.094Z,42.80
2019-03-05T21:15:36.162Z,42.70
2019-03-05T21:18:09.750Z,42.70
2019-03-05T21:20:39.212Z,43.20
2019-03-05T21:23:07.615Z,42.60
2019-03-05T21:25:35.857Z,42.70
2019-03-05T21:28:04.104Z,42.70
2019-03-05T21:30:32.379Z,42.50
2019-03-05T21:33:00.616Z,42.40
2019-03-05T21:35:28.908Z,42.30
2019-03-05T21:37:58.428Z,42.30
2019-03-05T21:40:29.950Z,42.40
2019-03-05T21:42:58.221Z,42.20
2019-03-05T21:45:48.280Z,42.20
2019-03-05T21:48:16.542Z,42.20
2019-03-05T21:50:44.766Z,42.20
2019-03-05T21:53:12.988Z,42.20
2019-03-05T21:55:41.254Z,42.00
2019-03-05T21:58:09.772Z,42.00
2019-03-05T22:00:39.641Z,41.80
2019-03-05T22:03:07.929Z,41.80
2019-03-05T22:05:36.163Z,41.80
2019-03-05T22:08:04.419Z,41.60
2019-03-05T22:10:32.948Z,41.60
2019-03-05T22:13:01.196Z,41.60
2019-03-05T22:15:30.974Z,42.10
2019-03-05T22:17:59.237Z,41.50
2019-03-05T22:20:27.585Z,41.50
2019-03-05T22:22:55.809Z,41.50
2019-03-05T22:25:24.744Z,41.30
2019-03-05T22:27:53.032Z,41.30
2019-03-05T22:30:35.365Z,41.80
2019-03-05T22:33:03.609Z,41.20
2019-03-05T22:35:31.837Z,41.30
2019-03-05T22:38:00.097Z,41.20
2019-03-05T22:40:29.078Z,41.20
2019-03-05T22:42:57.336Z,41.10
2019-03-05T22:45:30.031Z,41.10
2019-03-05T22:47:58.268Z,41.10
2019-03-05T22:50:26.520Z,41.10
2019-03-05T22:52:54.773Z,40.90
2019-03-05T22:55:23.006Z,40.90
2019-03-05T22:57:51.274Z,40.80
2019-03-05T23:00:40.790Z,40.70
2019-03-05T23:03:12.218Z,40.70
2019-03-05T23:05:40.489Z,40.70
2019-03-05T23:08:08.942Z,40.60
2019-03-05T23:10:37.165Z,40.60
2019-03-05T23:13:05.441Z,40.60
2019-03-05T23:15:33.867Z,40.50
2019-03-05T23:18:02.113Z,40.60
2019-03-05T23:20:30.624Z,40.50
2019-03-05T23:22:58.858Z,40.80
2019-03-05T23:25:27.084Z,40.40
2019-03-05T23:27:55.344Z,40.50
2019-03-05T23:30:23.599Z,40.40
2019-03-05T23:32:52.972Z,40.30
2019-03-05T23:35:21.219Z,40.30
2019-03-05T23:37:49.454Z,40.40
2019-03-05T23:40:17.680Z,40.30
2019-03-05T23:42:45.960Z,40.20
2019-03-05T23:45:18.228Z,40.30
2019-03-05T23:47:46.465Z,40.20
2019-03-05T23:50:16.749Z,40.20
2019-03-05T23:52:45.065Z,40.10
2019-03-05T23:55:14.160Z,40.10
2019-03-05T23:57:42.813Z,40.10
